UBBB/BAK METAR and TAF weather

Enter ICAO airport designator
Station Type Date Time Source
UBBB METAR 2019/08/18 20:00 UTC NOAA

UBBB 182000Z 30001KT 270V020 CAVOK 21/14 Q1010 R88/CLRD// NOSIG


Station Type Date Time Source
UBBB Decoded METAR 2019/08/18 20:00 UTC NOAA

Station name not available
Aug 18, 2019 - 04:00 PM EDT / 2019.08.18 2000 UTC
Wind: from the WNW (300 degrees) at 1 MPH (1 KT) (direction variable):0
Visibility: greater than 7 mile(s):0
Temperature: 69 F (21 C)
Dew Point: 57 F (14 C)
Relative Humidity: 64%
Pressure (altimeter): 29.83 in. Hg (1010 hPa)
ob: UBBB 182000Z 30001KT 270V020 CAVOK 21/14 Q1010 R88/CLRD// NOSIG
cycle: 20

Station Type Date Time Source
UBBB TAF 2019/08/18 18:30 UTC NOAA

TAF COR TAF COR UBBB 181720Z 1818/1918 36006KT 8000 NSC TX33/1911Z TN18/1900Z
TEMPO 1818/1822 06006KT FEW015
BECMG 1822/1824 31006KT 3000 BR FEW006
TEMPO 1900/1903 0800 FG FEW003
BECMG 1904/1906 07008KT CAVOK
TEMPO 1906/1915 13012KT

Example: see airport list